Time;durP1;ratioP1;P1;durP2;ratioP2;P2;SDS_P1;SDS_P2;PMS_P1;PMS_P2;Temp;Humidity;BMP_temperature;BMP_pressure;BME280_temperature;BME280_humidity;BME280_pressure;Samples;Min_cycle;Max_cycle;Signal;HPM_P1;HPM_P2
2022/07/10 00:00:17;;;;;;;3.10;0.85;;;;;;;;;;5103217;28;20015;-75
2022/07/10 00:02:44;;;;;;;3.08;1.20;;;;;;;;;;5095094;28;20028;-75
2022/07/10 00:05:11;;;;;;;5.18;1.10;;;;;;;;;;5103255;28;20031;-75
2022/07/10 00:07:37;;;;;;;5.25;1.50;;;;;;;;;;5094463;28;20107;-75
2022/07/10 00:10:04;;;;;;;5.18;1.60;;;;;;;;;;5095252;28;20031;-75
2022/07/10 00:12:30;;;;;;;3.35;1.10;;;;;;;;;;5099996;28;20028;-75
2022/07/10 00:14:56;;;;;;;4.97;1.33;;;;;;;;;;5096204;28;20070;-75
2022/07/10 00:17:22;;;;;;;3.60;1.20;;;;;;;;;;5103520;28;20055;-75
2022/07/10 00:19:48;;;;;;;4.15;1.02;;;;;;;;;;5096448;28;20428;-75
2022/07/10 00:22:14;;;;;;;3.70;1.20;;;;;;;;;;5106969;27;20078;-75
2022/07/10 00:24:40;;;;;;;6.55;1.33;;;;;;;;;;5103542;28;20097;-75
2022/07/10 00:27:06;;;;;;;3.15;1.10;;;;;;;;;;5101157;27;20613;-75
2022/07/10 00:29:32;;;;;;;3.22;1.15;;;;;;;;;;5101282;28;20038;-75
2022/07/10 00:31:58;;;;;;;4.68;0.90;;;;;;;;;;5099672;28;20412;-75
2022/07/10 00:34:24;;;;;;;2.65;0.90;;;;;;;;;;5106117;27;20065;-75
2022/07/10 00:36:50;;;;;;;3.97;0.90;;;;;;;;;;5103280;27;20039;-75
2022/07/10 00:39:16;;;;;;;3.40;1.02;;;;;;;;;;5104429;28;20027;-74
2022/07/10 00:41:42;;;;;;;3.53;1.23;;;;;;;;;;5098888;27;20667;-75
2022/07/10 00:44:08;;;;;;;3.90;0.90;;;;;;;;;;5109252;27;20127;-75
2022/07/10 00:46:35;;;;;;;3.47;0.90;;;;;;;;;;5098954;27;20036;-74
2022/07/10 00:49:01;;;;;;;4.22;1.33;;;;;;;;;;5108103;27;20031;-75
2022/07/10 00:51:29;;;;;;;5.00;1.05;;;;;;;;;;5096612;27;20040;-74
2022/07/10 00:53:56;;;;;;;3.15;0.90;;;;;;;;;;5107012;27;20378;-74
2022/07/10 00:56:23;;;;;;;3.20;0.70;;;;;;;;;;5104085;27;20035;-74
2022/07/10 00:58:50;;;;;;;3.95;0.88;;;;;;;;;;5096923;27;20023;-75
2022/07/10 01:01:16;;;;;;;2.10;0.60;;;;;;;;;;5102756;27;20040;-75
2022/07/10 01:03:46;;;;;;;4.07;0.85;;;;;;;;;;5107306;27;20032;-75
2022/07/10 01:06:12;;;;;;;3.95;0.90;;;;;;;;;;5100082;27;20134;-75
2022/07/10 01:08:38;;;;;;;4.43;0.77;;;;;;;;;;5096780;28;20695;-74
2022/07/10 01:11:05;;;;;;;3.25;0.77;;;;;;;;;;5096900;27;20035;-75
2022/07/10 01:13:31;;;;;;;3.58;1.15;;;;;;;;;;5097790;28;20103;-75
2022/07/10 01:15:57;;;;;;;3.90;1.15;;;;;;;;;;5102185;27;20039;-75
2022/07/10 01:18:25;;;;;;;3.95;1.17;;;;;;;;;;5100745;27;20033;-75
2022/07/10 01:20:52;;;;;;;3.00;1.02;;;;;;;;;;5106940;27;20043;-75
2022/07/10 01:23:18;;;;;;;3.15;1.10;;;;;;;;;;5098571;27;20846;-74
2022/07/10 01:25:44;;;;;;;1.67;0.73;;;;;;;;;;5098739;27;20047;-75
2022/07/10 01:28:10;;;;;;;4.07;1.08;;;;;;;;;;5100293;27;20067;-75
2022/07/10 01:30:36;;;;;;;2.63;1.02;;;;;;;;;;5102571;27;20450;-75
2022/07/10 01:33:02;;;;;;;5.13;1.05;;;;;;;;;;5096485;27;20038;-75
2022/07/10 01:35:28;;;;;;;2.83;1.00;;;;;;;;;;5105801;27;20044;-74
2022/07/10 01:37:54;;;;;;;2.17;0.85;;;;;;;;;;5099181;28;20032;-74
2022/07/10 01:40:20;;;;;;;3.83;0.98;;;;;;;;;;5098983;28;20040;-75
2022/07/10 01:42:46;;;;;;;6.18;1.83;;;;;;;;;;5104075;27;20032;-75
2022/07/10 01:45:12;;;;;;;3.35;1.45;;;;;;;;;;5103196;27;20031;-75
2022/07/10 01:47:38;;;;;;;2.40;1.10;;;;;;;;;;5098829;28;20437;-75
2022/07/10 01:50:05;;;;;;;3.75;1.40;;;;;;;;;;5096247;28;20044;-75
2022/07/10 01:52:31;;;;;;;3.50;1.17;;;;;;;;;;5099712;28;20068;-75
2022/07/10 01:54:57;;;;;;;7.53;1.65;;;;;;;;;;5109095;27;20047;-75
2022/07/10 01:57:23;;;;;;;4.95;1.30;;;;;;;;;;5106559;27;20989;-74
2022/07/10 01:59:49;;;;;;;3.53;1.13;;;;;;;;;;5097023;28;20032;-75
2022/07/10 02:02:15;;;;;;;5.60;1.10;;;;;;;;;;5101614;27;20032;-74
2022/07/10 02:04:41;;;;;;;3.13;0.90;;;;;;;;;;5099763;27;20032;-74
2022/07/10 02:07:08;;;;;;;4.10;0.98;;;;;;;;;;5096689;27;20066;-74
2022/07/10 02:09:34;;;;;;;2.53;0.90;;;;;;;;;;5098380;27;20377;-74
2022/07/10 02:12:00;;;;;;;3.92;1.20;;;;;;;;;;5096650;28;20032;-75
2022/07/10 02:14:26;;;;;;;3.30;0.85;;;;;;;;;;5095146;28;20029;-75
2022/07/10 02:16:52;;;;;;;4.03;0.80;;;;;;;;;;5100213;27;20056;-75
2022/07/10 02:19:18;;;;;;;5.10;1.00;;;;;;;;;;5096443;28;20055;-75
2022/07/10 02:21:46;;;;;;;5.00;1.10;;;;;;;;;;5100691;27;20435;-75
2022/07/10 02:24:12;;;;;;;5.15;1.08;;;;;;;;;;5104638;27;20956;-75
2022/07/10 02:26:38;;;;;;;4.53;0.90;;;;;;;;;;5095784;28;20036;-74
2022/07/10 02:29:04;;;;;;;4.90;1.10;;;;;;;;;;5103729;28;20136;-75
2022/07/10 02:31:30;;;;;;;2.90;0.90;;;;;;;;;;5104570;27;20724;-75
2022/07/10 02:33:56;;;;;;;4.20;1.00;;;;;;;;;;5104973;27;20034;-74
2022/07/10 02:36:22;;;;;;;5.05;1.17;;;;;;;;;;5102375;27;20035;-74
2022/07/10 02:38:48;;;;;;;4.82;1.13;;;;;;;;;;5102486;27;20035;-74
2022/07/10 02:41:14;;;;;;;5.50;1.30;;;;;;;;;;5099912;27;20031;-75
2022/07/10 02:43:40;;;;;;;3.83;1.15;;;;;;;;;;5099000;28;20043;-75
2022/07/10 02:46:06;;;;;;;3.33;1.00;;;;;;;;;;5104320;27;20756;-75
2022/07/10 02:48:32;;;;;;;3.28;0.90;;;;;;;;;;5108521;27;20028;-75
2022/07/10 02:50:58;;;;;;;2.75;0.75;;;;;;;;;;5097774;28;20032;-75
2022/07/10 02:53:24;;;;;;;2.25;0.80;;;;;;;;;;5103625;28;20476;-74
2022/07/10 02:55:50;;;;;;;3.90;1.02;;;;;;;;;;5105207;27;20027;-75
2022/07/10 02:58:17;;;;;;;3.92;0.95;;;;;;;;;;5098034;27;20038;-75
2022/07/10 03:00:43;;;;;;;4.13;0.90;;;;;;;;;;5098623;27;20073;-75
2022/07/10 03:03:09;;;;;;;1.98;0.80;;;;;;;;;;5092516;28;20032;-74
2022/07/10 03:05:35;;;;;;;2.67;0.80;;;;;;;;;;5099170;28;20058;-74
2022/07/10 03:08:01;;;;;;;4.03;0.80;;;;;;;;;;5098237;28;20032;-75
2022/07/10 03:10:27;;;;;;;4.15;1.00;;;;;;;;;;5103317;27;20071;-75
2022/07/10 03:12:53;;;;;;;2.17;0.80;;;;;;;;;;5102726;27;20046;-75
2022/07/10 03:15:19;;;;;;;2.70;0.88;;;;;;;;;;5094867;28;20425;-75
2022/07/10 03:17:45;;;;;;;3.60;1.27;;;;;;;;;;5096218;28;20051;-74
2022/07/10 03:20:12;;;;;;;3.22;0.90;;;;;;;;;;5098991;27;20024;-75
2022/07/10 03:22:38;;;;;;;2.75;1.00;;;;;;;;;;5096605;28;20121;-75
2022/07/10 03:25:04;;;;;;;5.32;1.20;;;;;;;;;;5102817;27;20476;-75
2022/07/10 03:27:30;;;;;;;4.75;0.82;;;;;;;;;;5102621;27;20031;-75
2022/07/10 03:29:56;;;;;;;2.72;0.88;;;;;;;;;;5101874;27;20132;-75
2022/07/10 03:32:22;;;;;;;2.53;0.80;;;;;;;;;;5097478;27;20122;-75
2022/07/10 03:34:48;;;;;;;2.67;0.82;;;;;;;;;;5097738;27;20382;-75
2022/07/10 03:37:14;;;;;;;5.63;0.95;;;;;;;;;;5101572;27;20043;-75
2022/07/10 03:39:40;;;;;;;5.35;1.20;;;;;;;;;;5097294;28;20035;-75
2022/07/10 03:42:06;;;;;;;4.18;1.27;;;;;;;;;;5096144;28;20032;-75
2022/07/10 03:44:32;;;;;;;3.05;1.10;;;;;;;;;;5101536;27;20015;-75
2022/07/10 03:46:59;;;;;;;4.15;1.20;;;;;;;;;;5099148;27;20059;-74
2022/07/10 03:49:26;;;;;;;3.17;1.10;;;;;;;;;;5096409;28;20028;-75
2022/07/10 03:51:52;;;;;;;2.55;0.93;;;;;;;;;;5100737;27;20036;-75
2022/07/10 03:54:18;;;;;;;2.53;0.70;;;;;;;;;;5103066;28;20382;-75
2022/07/10 03:59:29;;;;;;;4.18;1.35;;;;;;;;;;5098430;28;20043;-75
2022/07/10 04:01:55;;;;;;;3.95;0.80;;;;;;;;;;5098456;28;20032;-75
2022/07/10 04:04:21;;;;;;;2.83;0.90;;;;;;;;;;5100138;28;20061;-75
2022/07/10 04:06:47;;;;;;;2.08;0.63;;;;;;;;;;5098776;28;20971;-75
2022/07/10 04:09:13;;;;;;;3.75;1.13;;;;;;;;;;5095413;28;20104;-75
2022/07/10 04:11:39;;;;;;;3.58;1.30;;;;;;;;;;5100023;28;20044;-74
2022/07/10 04:14:05;;;;;;;3.72;0.80;;;;;;;;;;5104885;28;20413;-75
2022/07/10 04:16:31;;;;;;;1.95;0.80;;;;;;;;;;5101148;28;20503;-75
2022/07/10 04:18:57;;;;;;;4.22;1.00;;;;;;;;;;5099239;28;20031;-75
2022/07/10 04:21:23;;;;;;;6.75;0.90;;;;;;;;;;5096991;28;20046;-74
2022/07/10 04:23:49;;;;;;;3.55;1.10;;;;;;;;;;5100247;28;20031;-75
2022/07/10 04:26:15;;;;;;;3.90;1.00;;;;;;;;;;5095172;28;20668;-75
2022/07/10 04:28:41;;;;;;;4.43;1.10;;;;;;;;;;5095174;28;20032;-75
2022/07/10 04:31:07;;;;;;;3.30;0.82;;;;;;;;;;5105533;28;20131;-75
2022/07/10 04:33:34;;;;;;;4.05;1.13;;;;;;;;;;5102038;28;20111;-75
2022/07/10 04:36:00;;;;;;;3.63;1.27;;;;;;;;;;5108809;28;20122;-75
2022/07/10 04:38:26;;;;;;;3.78;0.95;;;;;;;;;;5099629;28;20535;-75
2022/07/10 04:40:52;;;;;;;3.40;1.00;;;;;;;;;;5099796;28;20027;-75
2022/07/10 04:43:18;;;;;;;5.88;1.08;;;;;;;;;;5092133;28;20028;-75
2022/07/10 04:45:45;;;;;;;7.38;1.42;;;;;;;;;;5091733;28;20032;-74
2022/07/10 04:48:11;;;;;;;4.00;0.93;;;;;;;;;;5093300;28;20408;-75
2022/07/10 04:50:38;;;;;;;2.63;0.90;;;;;;;;;;5096901;28;20031;-75
2022/07/10 04:53:04;;;;;;;4.07;1.02;;;;;;;;;;5096738;28;20339;-75
2022/07/10 04:55:30;;;;;;;2.78;1.00;;;;;;;;;;5100001;28;20040;-75
2022/07/10 04:57:56;;;;;;;4.88;1.00;;;;;;;;;;5097541;28;20028;-74
2022/07/10 05:00:22;;;;;;;4.47;1.10;;;;;;;;;;5101728;28;20489;-75
2022/07/10 05:02:48;;;;;;;3.47;1.20;;;;;;;;;;5094753;28;20107;-75
2022/07/10 05:05:14;;;;;;;3.03;1.00;;;;;;;;;;5100643;28;20035;-75
2022/07/10 05:07:40;;;;;;;3.63;0.80;;;;;;;;;;5102279;27;20027;-77
2022/07/10 05:10:06;;;;;;;2.88;1.02;;;;;;;;;;5098038;27;20132;-77
2022/07/10 05:12:32;;;;;;;3.85;1.10;;;;;;;;;;5102082;27;20032;-77
2022/07/10 05:14:59;;;;;;;5.13;1.27;;;;;;;;;;5110648;27;20032;-77
2022/07/10 05:17:28;;;;;;;4.25;1.10;;;;;;;;;;5101087;27;20047;-77
2022/07/10 05:19:55;;;;;;;3.58;1.17;;;;;;;;;;5102296;27;20031;-77
2022/07/10 05:22:21;;;;;;;6.05;1.45;;;;;;;;;;5099449;27;20585;-75
2022/07/10 05:24:47;;;;;;;5.10;1.48;;;;;;;;;;5103854;27;20050;-75
2022/07/10 05:27:13;;;;;;;4.60;1.30;;;;;;;;;;5099009;28;20474;-75
2022/07/10 05:29:39;;;;;;;4.53;1.42;;;;;;;;;;5095421;28;20498;-75
2022/07/10 05:32:05;;;;;;;4.03;1.40;;;;;;;;;;5099405;27;20036;-77
2022/07/10 05:34:31;;;;;;;5.85;1.00;;;;;;;;;;5106064;27;20042;-77
2022/07/10 05:36:57;;;;;;;3.58;1.00;;;;;;;;;;5107570;27;20032;-77
2022/07/10 05:39:26;;;;;;;2.35;1.00;;;;;;;;;;5103726;27;20450;-77
2022/07/10 05:41:52;;;;;;;3.53;1.15;;;;;;;;;;5094155;27;20127;-76
2022/07/10 05:44:19;;;;;;;2.83;0.93;;;;;;;;;;5098990;27;20028;-77
2022/07/10 05:46:45;;;;;;;5.38;0.90;;;;;;;;;;5100550;28;20035;-77
2022/07/10 05:49:12;;;;;;;9.20;1.50;;;;;;;;;;5100157;28;20474;-77
2022/07/10 05:51:38;;;;;;;6.90;1.20;;;;;;;;;;5101435;27;20067;-77
2022/07/10 05:54:04;;;;;;;2.17;0.90;;;;;;;;;;5102795;28;20462;-77
2022/07/10 05:56:30;;;;;;;2.80;0.80;;;;;;;;;;5104559;27;20054;-77
2022/07/10 05:58:56;;;;;;;2.85;1.00;;;;;;;;;;5100995;28;20027;-77
2022/07/10 06:01:22;;;;;;;4.45;1.10;;;;;;;;;;5098700;28;20032;-75
2022/07/10 06:03:48;;;;;;;2.92;0.90;;;;;;;;;;5100223;27;20031;-75
2022/07/10 06:06:15;;;;;;;2.72;1.00;;;;;;;;;;5096119;27;20428;-75
2022/07/10 06:08:42;;;;;;;4.43;0.90;;;;;;;;;;5094732;27;20026;-75
2022/07/10 06:11:08;;;;;;;2.50;0.80;;;;;;;;;;5095275;28;20462;-75
2022/07/10 06:13:34;;;;;;;5.13;1.10;;;;;;;;;;5104065;27;20038;-74
2022/07/10 06:16:00;;;;;;;4.05;1.65;;;;;;;;;;5104652;27;20419;-75
2022/07/10 06:18:26;;;;;;;5.53;1.13;;;;;;;;;;5092106;27;20078;-75
2022/07/10 06:20:52;;;;;;;5.03;1.30;;;;;;;;;;5099406;27;20119;-74
2022/07/10 06:23:18;;;;;;;3.22;0.80;;;;;;;;;;5099046;28;20034;-75
2022/07/10 06:25:44;;;;;;;4.13;1.00;;;;;;;;;;5094044;27;20431;-75
2022/07/10 06:28:10;;;;;;;4.35;1.27;;;;;;;;;;5098574;27;20036;-75
2022/07/10 06:30:36;;;;;;;4.45;1.20;;;;;;;;;;5092452;27;20077;-76
2022/07/10 06:33:02;;;;;;;4.78;0.90;;;;;;;;;;5097179;27;20344;-76
2022/07/10 06:35:28;;;;;;;4.15;0.80;;;;;;;;;;5100670;27;20050;-76
2022/07/10 06:37:54;;;;;;;4.95;0.88;;;;;;;;;;5093800;27;20379;-76
2022/07/10 06:40:21;;;;;;;2.67;1.08;;;;;;;;;;5093812;27;20040;-76
2022/07/10 06:42:47;;;;;;;2.90;0.90;;;;;;;;;;5096323;28;20028;-76
2022/07/10 06:45:13;;;;;;;3.72;1.00;;;;;;;;;;5094707;28;20035;-76
2022/07/10 06:47:55;;;;;;;4.20;0.95;;;;;;;;;;5094676;28;20028;-76
2022/07/10 06:50:21;;;;;;;;;;;;;;;;;;5094825;27;20035;-75
2022/07/10 06:52:47;;;;;;;3.50;0.70;;;;;;;;;;5093253;28;19960;-76
2022/07/10 06:55:14;;;;;;;2.40;1.00;;;;;;;;;;5092454;28;20434;-76
2022/07/10 06:57:40;;;;;;;6.85;1.10;;;;;;;;;;5091618;28;20059;-75
2022/07/10 07:00:06;;;;;;;5.63;1.02;;;;;;;;;;5092954;28;20508;-75
2022/07/10 07:02:32;;;;;;;2.13;0.90;;;;;;;;;;5093223;27;20055;-75
2022/07/10 07:04:58;;;;;;;2.53;0.80;;;;;;;;;;5090570;28;20031;-75
2022/07/10 07:07:24;;;;;;;3.22;1.00;;;;;;;;;;5094788;28;20474;-75
2022/07/10 07:09:50;;;;;;;2.10;0.95;;;;;;;;;;5092454;28;20497;-76
2022/07/10 07:12:20;;;;;;;3.90;0.98;;;;;;;;;;5090229;27;20126;-76
2022/07/10 07:14:46;;;;;;;3.67;0.95;;;;;;;;;;5093741;27;20101;-75
2022/07/10 07:17:14;;;;;;;2.58;0.93;;;;;;;;;;5095013;27;20479;-75
2022/07/10 07:25:11;;;;;;;5.65;1.20;;;;;;;;;;5084027;27;20112;-75
2022/07/10 07:27:38;;;;;;;6.30;1.00;;;;;;;;;;5092055;27;20032;-75
2022/07/10 07:30:04;;;;;;;3.38;0.95;;;;;;;;;;5092416;28;20031;-76
2022/07/10 07:32:31;;;;;;;1.60;0.80;;;;;;;;;;5091423;28;21837;-74
2022/07/10 07:34:57;;;;;;;2.38;0.90;;;;;;;;;;5096426;27;20382;-74
2022/07/10 07:37:23;;;;;;;4.47;1.00;;;;;;;;;;5096730;27;20035;-75
2022/07/10 07:39:50;;;;;;;2.35;0.70;;;;;;;;;;5071530;28;20028;-75
2022/07/10 07:42:16;;;;;;;2.92;0.95;;;;;;;;;;5094492;27;20051;-75
2022/07/10 07:44:42;;;;;;;3.08;1.00;;;;;;;;;;5100130;28;20061;-76
2022/07/10 07:47:08;;;;;;;4.07;0.80;;;;;;;;;;5097053;28;20171;-75
2022/07/10 07:49:34;;;;;;;1.98;1.08;;;;;;;;;;5096654;28;20036;-75
2022/07/10 07:52:00;;;;;;;3.30;1.00;;;;;;;;;;5092370;28;20027;-75
2022/07/10 07:54:26;;;;;;;3.40;1.00;;;;;;;;;;5097815;28;20375;-75
2022/07/10 07:56:52;;;;;;;2.97;0.93;;;;;;;;;;5093845;28;20035;-75
2022/07/10 07:59:18;;;;;;;6.53;0.88;;;;;;;;;;5096475;28;20024;-75
2022/07/10 08:01:44;;;;;;;2.17;0.70;;;;;;;;;;5096582;28;20091;-75
2022/07/10 08:04:10;;;;;;;2.22;0.70;;;;;;;;;;5094393;28;20044;-75
2022/07/10 08:06:37;;;;;;;3.75;1.00;;;;;;;;;;5094991;28;20036;-75
2022/07/10 08:09:03;;;;;;;1.67;0.65;;;;;;;;;;5092623;28;20067;-75
2022/07/10 08:11:29;;;;;;;4.53;0.80;;;;;;;;;;5096415;28;20044;-75
2022/07/10 08:13:55;;;;;;;2.25;0.88;;;;;;;;;;5097284;28;20100;-75
2022/07/10 08:16:21;;;;;;;2.65;0.90;;;;;;;;;;5092087;28;20067;-75
2022/07/10 08:18:47;;;;;;;3.45;1.02;;;;;;;;;;5095160;28;20035;-76
2022/07/10 08:21:13;;;;;;;6.07;1.10;;;;;;;;;;5091516;28;20032;-76
2022/07/10 08:23:39;;;;;;;2.80;1.05;;;;;;;;;;5097002;28;20083;-75
2022/07/10 08:26:05;;;;;;;3.08;0.93;;;;;;;;;;5093117;28;20091;-76
2022/07/10 08:28:31;;;;;;;3.13;0.90;;;;;;;;;;5095363;28;20036;-76
2022/07/10 08:30:57;;;;;;;3.60;0.80;;;;;;;;;;5090958;28;20094;-75
2022/07/10 08:33:24;;;;;;;4.22;1.17;;;;;;;;;;5091694;28;20093;-76
2022/07/10 08:35:50;;;;;;;2.05;0.93;;;;;;;;;;5092283;28;20127;-76
2022/07/10 08:38:16;;;;;;;3.85;1.15;;;;;;;;;;5094006;28;20027;-76
2022/07/10 08:40:42;;;;;;;2.80;0.82;;;;;;;;;;5091347;28;20036;-76
2022/07/10 08:43:08;;;;;;;2.40;1.10;;;;;;;;;;5095110;28;20035;-76
2022/07/10 08:45:34;;;;;;;2.33;0.90;;;;;;;;;;5099084;28;20351;-76
2022/07/10 08:48:05;;;;;;;2.95;0.80;;;;;;;;;;5095235;28;20038;-76
2022/07/10 08:50:33;;;;;;;2.05;0.80;;;;;;;;;;5096875;27;20028;-76
2022/07/10 08:52:59;;;;;;;3.22;0.80;;;;;;;;;;5096212;27;20381;-75
2022/07/10 08:55:25;;;;;;;2.70;0.85;;;;;;;;;;5098673;27;20032;-75
2022/07/10 08:57:52;;;;;;;4.40;0.90;;;;;;;;;;5095603;28;20157;-75
2022/07/10 09:00:18;;;;;;;2.92;0.88;;;;;;;;;;5097398;28;20053;-75
2022/07/10 09:02:44;;;;;;;2.50;0.82;;;;;;;;;;5092888;28;20063;-75
2022/07/10 09:05:10;;;;;;;2.15;0.70;;;;;;;;;;5098822;28;20055;-75
2022/07/10 09:07:37;;;;;;;3.55;0.80;;;;;;;;;;5096021;27;20035;-75
2022/07/10 09:10:07;;;;;;;2.75;0.88;;;;;;;;;;5097366;28;20126;-75
2022/07/10 09:12:49;;;;;;;2.47;1.00;;;;;;;;;;5099818;28;20352;-76
2022/07/10 09:15:17;;;;;;;2.67;1.00;;;;;;;;;;5097533;27;20032;-76
2022/07/10 09:18:10;;;;;;;3.22;0.85;;;;;;;;;;5096232;28;20470;-75
2022/07/10 09:20:36;;;;;;;4.22;0.95;;;;;;;;;;5090008;28;20106;-76
2022/07/10 09:23:21;;;;;;;2.58;1.02;;;;;;;;;;5095076;27;20055;-76
2022/07/10 09:25:48;;;;;;;2.45;1.00;;;;;;;;;;5095724;28;20035;-75
2022/07/10 09:28:16;;;;;;;6.32;1.15;;;;;;;;;;5098314;28;20038;-76
2022/07/10 09:30:42;;;;;;;3.88;1.00;;;;;;;;;;5100888;27;20036;-75
2022/07/10 09:33:17;;;;;;;2.45;0.60;;;;;;;;;;5095113;28;20036;-75
2022/07/10 09:36:06;;;;;;;4.40;0.93;;;;;;;;;;5101591;27;20028;-76
2022/07/10 09:38:51;;;;;;;2.80;0.80;;;;;;;;;;5096083;28;20031;-75
2022/07/10 09:41:24;;;;;;;4.53;0.82;;;;;;;;;;5095142;28;20390;-75
2022/07/10 09:44:00;;;;;;;3.42;1.00;;;;;;;;;;5097268;27;20031;-75
2022/07/10 09:46:34;;;;;;;2.85;0.73;;;;;;;;;;5101924;27;20035;-76
2022/07/10 09:49:10;;;;;;;3.13;0.82;;;;;;;;;;5098034;27;20028;-75
2022/07/10 09:51:36;;;;;;;7.43;1.00;;;;;;;;;;5101227;27;20032;-76
2022/07/10 09:54:03;;;;;;;3.58;0.73;;;;;;;;;;5099746;27;20034;-76
2022/07/10 09:56:51;;;;;;;3.53;0.70;;;;;;;;;;5094012;28;20024;-76
2022/07/10 09:59:18;;;;;;;2.25;0.80;;;;;;;;;;5098244;28;20481;-76
2022/07/10 10:01:48;;;;;;;4.00;0.80;;;;;;;;;;5097005;27;20038;-76
2022/07/10 10:04:18;;;;;;;1.85;0.70;;;;;;;;;;5095530;28;20051;-76
2022/07/10 10:06:46;;;;;;;4.15;0.85;;;;;;;;;;5102476;27;20907;-76
2022/07/10 10:09:12;;;;;;;2.80;0.70;;;;;;;;;;5099957;27;20036;-76
2022/07/10 10:11:40;;;;;;;3.67;1.20;;;;;;;;;;5092039;28;20027;-76
2022/07/10 10:14:07;;;;;;;6.20;1.05;;;;;;;;;;5097079;27;20043;-75
2022/07/10 10:16:34;;;;;;;6.32;1.00;;;;;;;;;;5099170;28;20048;-75
2022/07/10 10:21:45;;;;;;;7.10;2.08;;;;;;;;;;5091702;27;20969;-76
2022/07/10 10:24:11;;;;;;;6.38;2.58;;;;;;;;;;5097676;27;20032;-77
2022/07/10 10:26:37;;;;;;;3.72;1.85;;;;;;;;;;5094506;27;20035;-76
2022/07/10 10:29:06;;;;;;;1.95;0.60;;;;;;;;;;5095484;27;20115;-76
2022/07/10 10:31:32;;;;;;;2.78;0.70;;;;;;;;;;5094213;28;20036;-76
2022/07/10 10:34:00;;;;;;;4.72;0.88;;;;;;;;;;5103859;27;20038;-76
2022/07/10 10:36:43;;;;;;;2.47;0.70;;;;;;;;;;5101197;27;20036;-76
2022/07/10 10:39:11;;;;;;;2.70;0.70;;;;;;;;;;5096806;28;20027;-76
2022/07/10 10:41:46;;;;;;;4.03;0.70;;;;;;;;;;5103071;27;20449;-76
2022/07/10 10:44:18;;;;;;;3.28;0.93;;;;;;;;;;5098580;27;20102;-76
2022/07/10 10:47:00;;;;;;;4.05;0.90;;;;;;;;;;5094688;28;20031;-76
2022/07/10 10:49:26;;;;;;;1.92;0.70;;;;;;;;;;5097340;28;20020;-75
2022/07/10 10:51:59;;;;;;;2.78;1.00;;;;;;;;;;5093377;28;20431;-76
2022/07/10 10:54:26;;;;;;;4.57;0.88;;;;;;;;;;5097955;27;20088;-76
2022/07/10 10:57:10;;;;;;;2.72;0.65;;;;;;;;;;5092376;27;20052;-76
2022/07/10 10:59:46;;;;;;;3.80;0.90;;;;;;;;;;5093116;27;20020;-76
2022/07/10 11:02:34;;;;;;;3.20;1.02;;;;;;;;;;5096478;27;20035;-76
2022/07/10 11:07:55;;;;;;;2.97;1.00;;;;;;;;;;5093579;28;20406;-76
2022/07/10 11:10:40;;;;;;;1.73;0.63;;;;;;;;;;5098164;27;20032;-76
2022/07/10 11:13:07;;;;;;;4.70;0.93;;;;;;;;;;5097761;27;20024;-76
2022/07/10 11:15:34;;;;;;;2.13;0.70;;;;;;;;;;5098937;27;20390;-76
2022/07/10 11:18:07;;;;;;;3.85;0.80;;;;;;;;;;5095091;28;20046;-76
2022/07/10 11:20:34;;;;;;;4.43;0.70;;;;;;;;;;5100178;27;20115;-76
2022/07/10 11:23:18;;;;;;;2.42;0.70;;;;;;;;;;5090509;28;20028;-76
2022/07/10 11:26:10;;;;;;;4.85;0.70;;;;;;;;;;5094207;28;20024;-76
2022/07/10 11:28:53;;;;;;;2.13;0.85;;;;;;;;;;5094170;28;20061;-76
2022/07/10 11:31:20;;;;;;;2.22;0.73;;;;;;;;;;5098709;28;20055;-76
2022/07/10 11:33:48;;;;;;;2.72;0.63;;;;;;;;;;5095422;28;20047;-76
2022/07/10 11:36:21;;;;;;;5.20;0.80;;;;;;;;;;5096473;28;20100;-76
2022/07/10 11:38:48;;;;;;;4.15;0.82;;;;;;;;;;5093237;28;20054;-76
2022/07/10 11:41:14;;;;;;;2.17;0.60;;;;;;;;;;5094187;28;20089;-76
2022/07/10 11:43:47;;;;;;;2.53;0.70;;;;;;;;;;5101537;28;20470;-76
2022/07/10 11:46:14;;;;;;;3.13;0.70;;;;;;;;;;5094564;28;20038;-76
2022/07/10 11:48:42;;;;;;;2.65;0.70;;;;;;;;;;5100108;27;20041;-76
2022/07/10 11:51:24;;;;;;;3.35;0.70;;;;;;;;;;5091730;27;20034;-76
2022/07/10 11:53:58;;;;;;;3.17;0.60;;;;;;;;;;5097635;28;20063;-76
2022/07/10 11:56:24;;;;;;;4.18;0.85;;;;;;;;;;5095985;27;20161;-76
2022/07/10 11:58:56;;;;;;;2.00;0.70;;;;;;;;;;5097294;28;20102;-76
2022/07/10 12:01:22;;;;;;;6.30;0.80;;;;;;;;;;5095267;28;20835;-76
2022/07/10 12:04:08;;;;;;;2.70;0.77;;;;;;;;;;5091705;28;20028;-76
2022/07/10 12:06:35;;;;;;;4.97;1.10;;;;;;;;;;5094368;28;20042;-76
2022/07/10 12:09:03;;;;;;;6.05;0.90;;;;;;;;;;5092154;28;20038;-76
2022/07/10 12:11:29;;;;;;;2.03;0.60;;;;;;;;;;5093048;28;20035;-76
2022/07/10 12:14:08;;;;;;;2.22;0.70;;;;;;;;;;5099163;28;20063;-76
2022/07/10 12:16:38;;;;;;;2.10;0.60;;;;;;;;;;5096370;28;20109;-76
2022/07/10 12:19:04;;;;;;;2.55;0.70;;;;;;;;;;5095145;28;20038;-75
2022/07/10 12:21:31;;;;;;;3.72;0.88;;;;;;;;;;5103104;27;20031;-76
2022/07/10 12:23:57;;;;;;;4.88;0.60;;;;;;;;;;5104337;27;20472;-76
2022/07/10 12:26:31;;;;;;;1.77;0.60;;;;;;;;;;5102826;27;20040;-75
2022/07/10 12:28:58;;;;;;;2.50;0.50;;;;;;;;;;5098213;27;20028;-76
2022/07/10 12:31:25;;;;;;;2.70;0.50;;;;;;;;;;5098603;28;20101;-76
2022/07/10 12:33:52;;;;;;;7.47;0.65;;;;;;;;;;5095787;28;20474;-76
2022/07/10 12:36:19;;;;;;;3.17;0.65;;;;;;;;;;5100276;28;20375;-76
2022/07/10 12:38:53;;;;;;;1.98;0.50;;;;;;;;;;5098531;28;20462;-76
2022/07/10 12:41:24;;;;;;;1.63;0.50;;;;;;;;;;5099641;28;20158;-76
2022/07/10 12:43:50;;;;;;;1.75;0.50;;;;;;;;;;5101371;28;20027;-75
2022/07/10 12:46:18;;;;;;;2.25;0.63;;;;;;;;;;5099378;27;20658;-76
2022/07/10 12:49:01;;;;;;;1.58;0.40;;;;;;;;;;5098931;27;20523;-76
2022/07/10 12:51:29;;;;;;;2.03;0.40;;;;;;;;;;5096349;28;20408;-76
2022/07/10 12:53:55;;;;;;;1.85;0.60;;;;;;;;;;5098494;27;20031;-76
2022/07/10 12:56:27;;;;;;;2.63;0.52;;;;;;;;;;5103570;28;20036;-76
2022/07/10 12:58:53;;;;;;;2.05;0.55;;;;;;;;;;5098065;27;20028;-76
2022/07/10 13:01:19;;;;;;;9.52;1.10;;;;;;;;;;5097530;28;20032;-76
2022/07/10 13:03:46;;;;;;;1.70;0.60;;;;;;;;;;5097478;27;20032;-76
2022/07/10 13:06:28;;;;;;;2.50;0.55;;;;;;;;;;5098055;27;20050;-76
2022/07/10 13:08:54;;;;;;;2.40;0.50;;;;;;;;;;5101314;27;20035;-76
2022/07/10 13:11:21;;;;;;;23.45;0.88;;;;;;;;;;5099014;27;20381;-76
2022/07/10 13:13:47;;;;;;;1.65;0.75;;;;;;;;;;5106277;27;20146;-76
2022/07/10 13:16:13;;;;;;;1.85;0.60;;;;;;;;;;5099874;27;20034;-76
2022/07/10 13:18:42;;;;;;;2.90;0.60;;;;;;;;;;5095881;27;20042;-76
2022/07/10 13:21:08;;;;;;;1.73;0.50;;;;;;;;;;5098039;27;20439;-76
2022/07/10 13:23:34;;;;;;;2.05;0.60;;;;;;;;;;5097793;28;20027;-76
2022/07/10 13:26:01;;;;;;;3.55;0.63;;;;;;;;;;5100313;28;20034;-76
2022/07/10 13:28:27;;;;;;;1.73;0.52;;;;;;;;;;5102350;27;20032;-76
2022/07/10 13:30:53;;;;;;;7.85;0.50;;;;;;;;;;5095061;27;20032;-76
2022/07/10 13:33:19;;;;;;;1.88;0.60;;;;;;;;;;5093854;27;20047;-76
2022/07/10 13:35:45;;;;;;;1.35;0.50;;;;;;;;;;5103510;27;20086;-76
2022/07/10 13:38:11;;;;;;;5.85;0.60;;;;;;;;;;5094632;27;20409;-76
2022/07/10 13:40:38;;;;;;;2.00;0.60;;;;;;;;;;5095892;27;20035;-76
2022/07/10 13:43:05;;;;;;;1.42;0.55;;;;;;;;;;5094573;28;20043;-76
2022/07/10 13:45:37;;;;;;;2.85;0.80;;;;;;;;;;5105840;27;20047;-76
2022/07/10 13:48:06;;;;;;;3.00;0.60;;;;;;;;;;5103465;27;20114;-76
2022/07/10 13:50:32;;;;;;;3.08;0.60;;;;;;;;;;5095756;27;20028;-76
2022/07/10 13:52:58;;;;;;;5.10;0.60;;;;;;;;;;5098833;28;20031;-76
2022/07/10 13:55:24;;;;;;;1.55;0.50;;;;;;;;;;5097992;27;20043;-76
2022/07/10 13:57:50;;;;;;;2.88;0.50;;;;;;;;;;5093399;28;20028;-76
2022/07/10 14:00:16;;;;;;;2.25;0.50;;;;;;;;;;5104761;27;20062;-76
2022/07/10 14:02:43;;;;;;;3.92;0.65;;;;;;;;;;5096279;28;20031;-76
2022/07/10 14:05:09;;;;;;;1.65;0.50;;;;;;;;;;5097445;28;20039;-76
2022/07/10 14:07:35;;;;;;;3.25;0.50;;;;;;;;;;5095869;27;20020;-76
2022/07/10 14:10:01;;;;;;;1.65;0.50;;;;;;;;;;5098331;28;20034;-76
2022/07/10 14:12:27;;;;;;;1.90;0.60;;;;;;;;;;5101856;27;20119;-76
2022/07/10 14:14:54;;;;;;;6.25;0.60;;;;;;;;;;5098497;28;20024;-76
2022/07/10 14:17:20;;;;;;;1.60;0.60;;;;;;;;;;5096248;27;20566;-76
2022/07/10 14:19:46;;;;;;;1.35;0.68;;;;;;;;;;5099684;28;20024;-76
2022/07/10 14:22:12;;;;;;;4.18;0.50;;;;;;;;;;5093674;27;20039;-75
2022/07/10 14:24:38;;;;;;;1.20;0.60;;;;;;;;;;5104038;27;20036;-75
2022/07/10 14:27:06;;;;;;;3.15;0.50;;;;;;;;;;5095074;28;20043;-76
2022/07/10 14:29:32;;;;;;;2.45;0.50;;;;;;;;;;5099097;27;20027;-76
2022/07/10 14:31:58;;;;;;;2.28;0.50;;;;;;;;;;5097206;28;20101;-76
2022/07/10 14:34:24;;;;;;;1.85;0.40;;;;;;;;;;5100530;27;20039;-76
2022/07/10 14:36:50;;;;;;;1.00;0.40;;;;;;;;;;5098513;27;20040;-76
2022/07/10 14:39:16;;;;;;;1.25;0.40;;;;;;;;;;5097255;28;20029;-76
2022/07/10 14:41:42;;;;;;;1.00;0.50;;;;;;;;;;5092658;27;20024;-76
2022/07/10 14:44:08;;;;;;;1.60;0.40;;;;;;;;;;5098425;28;20020;-76
2022/07/10 14:46:35;;;;;;;1.80;0.50;;;;;;;;;;5093157;28;20481;-76
2022/07/10 14:49:01;;;;;;;2.58;0.90;;;;;;;;;;5093572;27;20035;-76
2022/07/10 14:51:27;;;;;;;1.05;0.40;;;;;;;;;;5094370;28;20036;-76
2022/07/10 14:53:54;;;;;;;1.23;0.40;;;;;;;;;;5093293;27;20043;-76
2022/07/10 14:56:20;;;;;;;2.70;0.47;;;;;;;;;;5092873;28;20108;-76
2022/07/10 14:58:46;;;;;;;1.48;0.43;;;;;;;;;;5096246;28;21968;-76